sensor_id;sensor_type;location;lat;lon;timestamp;pressure;altitude;pressure_sealevel;temperature;humidity
63447;BME280;49577;49.872;6.190;2023-05-11T00:00:06;99336.84;;;7.91;85.80
63447;BME280;49577;49.872;6.190;2023-05-11T00:02:31;99336.10;;;7.95;85.81
63447;BME280;49577;49.872;6.190;2023-05-11T00:04:57;99333.36;;;8.00;85.84
63447;BME280;49577;49.872;6.190;2023-05-11T00:07:23;99328.21;;;8.02;85.66
63447;BME280;49577;49.872;6.190;2023-05-11T00:09:48;99332.36;;;8.06;86.12
63447;BME280;49577;49.872;6.190;2023-05-11T00:12:13;99332.98;;;8.13;86.31
63447;BME280;49577;49.872;6.190;2023-05-11T00:14:39;99330.85;;;8.20;86.28
63447;BME280;49577;49.872;6.190;2023-05-11T00:17:04;99331.96;;;8.25;86.04
63447;BME280;49577;49.872;6.190;2023-05-11T00:19:30;99334.09;;;8.30;86.22
63447;BME280;49577;49.872;6.190;2023-05-11T00:21:56;99333.48;;;8.35;86.36
63447;BME280;49577;49.872;6.190;2023-05-11T00:24:23;99329.21;;;8.40;86.18
63447;BME280;49577;49.872;6.190;2023-05-11T00:26:48;99329.88;;;8.43;86.16
63447;BME280;49577;49.872;6.190;2023-05-11T00:29:14;99330.87;;;8.45;86.15
63447;BME280;49577;49.872;6.190;2023-05-11T00:31:39;99330.23;;;8.46;86.22
63447;BME280;49577;49.872;6.190;2023-05-11T00:34:04;99330.77;;;8.46;85.94
63447;BME280;49577;49.872;6.190;2023-05-11T00:36:30;99329.14;;;8.41;86.12
63447;BME280;49577;49.872;6.190;2023-05-11T00:38:55;99331.65;;;8.37;86.09
63447;BME280;49577;49.872;6.190;2023-05-11T00:41:20;99331.45;;;8.33;86.23
63447;BME280;49577;49.872;6.190;2023-05-11T00:43:46;99328.60;;;8.32;86.13
63447;BME280;49577;49.872;6.190;2023-05-11T00:46:11;99328.70;;;8.30;86.09
63447;BME280;49577;49.872;6.190;2023-05-11T00:48:36;99325.18;;;8.31;86.43
63447;BME280;49577;49.872;6.190;2023-05-11T00:51:03;99325.14;;;8.34;86.68
63447;BME280;49577;49.872;6.190;2023-05-11T00:53:28;99321.98;;;8.41;86.92
63447;BME280;49577;49.872;6.190;2023-05-11T00:55:53;99322.59;;;8.46;86.87
63447;BME280;49577;49.872;6.190;2023-05-11T00:58:19;99320.29;;;8.50;86.88
63447;BME280;49577;49.872;6.190;2023-05-11T01:00:44;99322.32;;;8.54;87.06
63447;BME280;49577;49.872;6.190;2023-05-11T01:03:12;99321.88;;;8.55;86.86
63447;BME280;49577;49.872;6.190;2023-05-11T01:11:07;99335.46;;;8.49;86.52
63447;BME280;49577;49.872;6.190;2023-05-11T01:13:52;99334.15;;;8.45;86.81
63447;BME280;49577;49.872;6.190;2023-05-11T01:16:20;99332.23;;;8.45;87.11
63447;BME280;49577;49.872;6.190;2023-05-11T01:18:59;99333.28;;;8.48;87.37
63447;BME280;49577;49.872;6.190;2023-05-11T01:21:29;99333.01;;;8.50;87.29
63447;BME280;49577;49.872;6.190;2023-05-11T01:29:45;99334.55;;;8.53;87.45
63447;BME280;49577;49.872;6.190;2023-05-11T01:32:18;99333.30;;;8.53;87.56
63447;BME280;49577;49.872;6.190;2023-05-11T01:34:45;99333.04;;;8.52;87.64
63447;BME280;49577;49.872;6.190;2023-05-11T01:37:18;99328.59;;;8.51;87.75
63447;BME280;49577;49.872;6.190;2023-05-11T01:39:54;99327.92;;;8.53;88.10
63447;BME280;49577;49.872;6.190;2023-05-11T01:42:25;99327.85;;;8.54;87.86
63447;BME280;49577;49.872;6.190;2023-05-11T01:44:53;99331.06;;;8.53;87.83
63447;BME280;49577;49.872;6.190;2023-05-11T01:47:22;99333.42;;;8.54;88.10
63447;BME280;49577;49.872;6.190;2023-05-11T01:49:50;99341.56;;;8.58;88.43
63447;BME280;49577;49.872;6.190;2023-05-11T01:52:19;99341.71;;;8.61;88.54
63447;BME280;49577;49.872;6.190;2023-05-11T01:54:46;99337.32;;;8.65;88.53
63447;BME280;49577;49.872;6.190;2023-05-11T01:57:14;99336.77;;;8.71;88.79
63447;BME280;49577;49.872;6.190;2023-05-11T01:59:41;99338.67;;;8.77;88.78
63447;BME280;49577;49.872;6.190;2023-05-11T02:02:07;99340.32;;;8.82;88.62
63447;BME280;49577;49.872;6.190;2023-05-11T02:04:35;99339.10;;;8.85;88.29
63447;BME280;49577;49.872;6.190;2023-05-11T02:07:02;99346.75;;;8.85;88.07
63447;BME280;49577;49.872;6.190;2023-05-11T02:09:30;99348.27;;;8.86;88.07
63447;BME280;49577;49.872;6.190;2023-05-11T02:11:57;99344.15;;;8.88;88.15
63447;BME280;49577;49.872;6.190;2023-05-11T02:14:26;99342.13;;;8.90;87.95
63447;BME280;49577;49.872;6.190;2023-05-11T02:16:55;99340.76;;;8.92;87.89
63447;BME280;49577;49.872;6.190;2023-05-11T02:19:20;99341.11;;;8.95;87.91
63447;BME280;49577;49.872;6.190;2023-05-11T02:21:46;99341.45;;;8.95;87.56
63447;BME280;49577;49.872;6.190;2023-05-11T02:24:14;99341.60;;;8.95;87.49
63447;BME280;49577;49.872;6.190;2023-05-11T02:26:40;99343.59;;;8.95;87.54
63447;BME280;49577;49.872;6.190;2023-05-11T02:29:06;99343.05;;;8.95;87.54
63447;BME280;49577;49.872;6.190;2023-05-11T02:31:35;99348.15;;;8.97;87.69
63447;BME280;49577;49.872;6.190;2023-05-11T02:34:07;99347.59;;;9.00;87.68
63447;BME280;49577;49.872;6.190;2023-05-11T02:36:36;99348.04;;;9.02;87.58
63447;BME280;49577;49.872;6.190;2023-05-11T02:39:05;99342.53;;;9.00;87.54
63447;BME280;49577;49.872;6.190;2023-05-11T02:41:38;99340.52;;;8.99;87.45
63447;BME280;49577;49.872;6.190;2023-05-11T02:44:06;99338.38;;;9.00;87.68
63447;BME280;49577;49.872;6.190;2023-05-11T02:46:35;99335.86;;;9.01;87.63
63447;BME280;49577;49.872;6.190;2023-05-11T02:49:04;99335.66;;;9.02;87.47
63447;BME280;49577;49.872;6.190;2023-05-11T02:51:35;99338.04;;;9.00;87.28
63447;BME280;49577;49.872;6.190;2023-05-11T02:54:02;99337.21;;;8.96;87.19
63447;BME280;49577;49.872;6.190;2023-05-11T02:56:31;99335.44;;;8.94;87.25
63447;BME280;49577;49.872;6.190;2023-05-11T02:58:57;99332.98;;;8.91;87.25
63447;BME280;49577;49.872;6.190;2023-05-11T03:01:22;99332.94;;;8.89;87.32
63447;BME280;49577;49.872;6.190;2023-05-11T03:03:48;99330.05;;;8.88;87.49
63447;BME280;49577;49.872;6.190;2023-05-11T03:06:13;99328.70;;;8.87;87.65
63447;BME280;49577;49.872;6.190;2023-05-11T03:08:40;99328.86;;;8.87;87.49
63447;BME280;49577;49.872;6.190;2023-05-11T03:11:06;99328.96;;;8.85;87.32
63447;BME280;49577;49.872;6.190;2023-05-11T03:13:33;99330.17;;;8.85;87.39
63447;BME280;49577;49.872;6.190;2023-05-11T03:15:59;99328.40;;;8.86;87.57
63447;BME280;49577;49.872;6.190;2023-05-11T03:18:27;99328.76;;;8.86;87.57
63447;BME280;49577;49.872;6.190;2023-05-11T03:20:53;99325.61;;;8.86;87.56
63447;BME280;49577;49.872;6.190;2023-05-11T03:23:19;99325.93;;;8.86;87.45
63447;BME280;49577;49.872;6.190;2023-05-11T03:25:45;99326.14;;;8.86;87.61
63447;BME280;49577;49.872;6.190;2023-05-11T03:28:11;99327.85;;;8.86;87.57
63447;BME280;49577;49.872;6.190;2023-05-11T03:30:39;99324.03;;;8.86;87.67
63447;BME280;49577;49.872;6.190;2023-05-11T03:33:05;99323.70;;;8.86;87.65
63447;BME280;49577;49.872;6.190;2023-05-11T03:35:32;99326.36;;;8.88;87.87
63447;BME280;49577;49.872;6.190;2023-05-11T03:37:59;99328.55;;;8.90;87.87
63447;BME280;49577;49.872;6.190;2023-05-11T03:40:24;99330.67;;;8.89;87.57
63447;BME280;49577;49.872;6.190;2023-05-11T03:42:53;99330.14;;;8.89;87.62
63447;BME280;49577;49.872;6.190;2023-05-11T03:45:19;99332.27;;;8.89;87.65
63447;BME280;49577;49.872;6.190;2023-05-11T03:47:46;99333.48;;;8.89;87.72
63447;BME280;49577;49.872;6.190;2023-05-11T03:50:13;99334.05;;;8.88;87.42
63447;BME280;49577;49.872;6.190;2023-05-11T03:52:39;99336.23;;;8.86;87.73
63447;BME280;49577;49.872;6.190;2023-05-11T03:55:05;99335.83;;;8.84;87.77
63447;BME280;49577;49.872;6.190;2023-05-11T03:57:31;99335.71;;;8.83;87.86
63447;BME280;49577;49.872;6.190;2023-05-11T03:59:56;99336.02;;;8.81;87.78
63447;BME280;49577;49.872;6.190;2023-05-11T04:02:22;99334.65;;;8.80;87.88
63447;BME280;49577;49.872;6.190;2023-05-11T04:04:49;99336.53;;;8.81;87.90
63447;BME280;49577;49.872;6.190;2023-05-11T04:07:14;99335.27;;;8.81;87.89
63447;BME280;49577;49.872;6.190;2023-05-11T04:09:40;99335.38;;;8.82;88.18
63447;BME280;49577;49.872;6.190;2023-05-11T04:12:05;99332.38;;;8.83;88.08
63447;BME280;49577;49.872;6.190;2023-05-11T04:14:30;99333.22;;;8.84;87.99
63447;BME280;49577;49.872;6.190;2023-05-11T04:16:56;99329.15;;;8.85;88.01
63447;BME280;49577;49.872;6.190;2023-05-11T04:19:21;99333.13;;;8.85;88.17
63447;BME280;49577;49.872;6.190;2023-05-11T04:21:46;99329.25;;;8.86;88.29
63447;BME280;49577;49.872;6.190;2023-05-11T04:24:12;99335.20;;;8.89;88.51
63447;BME280;49577;49.872;6.190;2023-05-11T04:26:37;99330.23;;;8.93;88.56
63447;BME280;49577;49.872;6.190;2023-05-11T04:29:02;99334.00;;;8.97;88.37
63447;BME280;49577;49.872;6.190;2023-05-11T04:31:27;99334.73;;;9.03;88.66
63447;BME280;49577;49.872;6.190;2023-05-11T04:33:54;99334.52;;;9.06;88.38
63447;BME280;49577;49.872;6.190;2023-05-11T04:36:19;99335.45;;;9.05;88.12
63447;BME280;49577;49.872;6.190;2023-05-11T04:38:46;99336.36;;;9.04;88.11
63447;BME280;49577;49.872;6.190;2023-05-11T04:41:11;99338.09;;;9.04;88.28
63447;BME280;49577;49.872;6.190;2023-05-11T04:43:37;99340.33;;;9.05;88.22
63447;BME280;49577;49.872;6.190;2023-05-11T04:46:03;99339.10;;;9.05;88.25
63447;BME280;49577;49.872;6.190;2023-05-11T04:48:28;99343.84;;;9.04;88.09
63447;BME280;49577;49.872;6.190;2023-05-11T04:50:54;99343.52;;;9.04;88.18
63447;BME280;49577;49.872;6.190;2023-05-11T04:53:19;99346.61;;;9.04;88.17
63447;BME280;49577;49.872;6.190;2023-05-11T04:55:45;99345.73;;;9.05;88.15
63447;BME280;49577;49.872;6.190;2023-05-11T04:58:10;99347.19;;;9.04;87.95
63447;BME280;49577;49.872;6.190;2023-05-11T05:00:36;99348.20;;;9.04;88.14
63447;BME280;49577;49.872;6.190;2023-05-11T05:03:01;99345.73;;;9.05;88.17
63447;BME280;49577;49.872;6.190;2023-05-11T05:05:27;99343.06;;;9.06;88.11
63447;BME280;49577;49.872;6.190;2023-05-11T05:07:52;99343.71;;;9.07;88.17
63447;BME280;49577;49.872;6.190;2023-05-11T05:10:18;99342.77;;;9.08;88.14
63447;BME280;49577;49.872;6.190;2023-05-11T05:12:43;99346.77;;;9.11;88.25
63447;BME280;49577;49.872;6.190;2023-05-11T05:15:08;99350.61;;;9.16;88.27
63447;BME280;49577;49.872;6.190;2023-05-11T05:17:35;99355.91;;;9.21;88.07
63447;BME280;49577;49.872;6.190;2023-05-11T05:20:01;99351.17;;;9.27;88.12
63447;BME280;49577;49.872;6.190;2023-05-11T05:22:26;99352.97;;;9.34;88.10
63447;BME280;49577;49.872;6.190;2023-05-11T05:24:51;99351.74;;;9.41;87.93
63447;BME280;49577;49.872;6.190;2023-05-11T05:27:17;99353.52;;;9.48;87.90
63447;BME280;49577;49.872;6.190;2023-05-11T05:29:42;99359.28;;;9.56;87.83
63447;BME280;49577;49.872;6.190;2023-05-11T05:32:08;99358.63;;;9.64;87.77
63447;BME280;49577;49.872;6.190;2023-05-11T05:34:33;99359.73;;;9.74;87.62
63447;BME280;49577;49.872;6.190;2023-05-11T05:36:58;99359.80;;;9.81;87.30
63447;BME280;49577;49.872;6.190;2023-05-11T05:39:24;99360.73;;;9.86;87.06
63447;BME280;49577;49.872;6.190;2023-05-11T05:41:49;99367.91;;;9.88;86.83
63447;BME280;49577;49.872;6.190;2023-05-11T05:44:15;99369.06;;;9.90;86.88
63447;BME280;49577;49.872;6.190;2023-05-11T05:46:40;99369.48;;;9.91;86.64
63447;BME280;49577;49.872;6.190;2023-05-11T05:49:05;99375.88;;;9.95;86.82
63447;BME280;49577;49.872;6.190;2023-05-11T05:51:31;99370.51;;;10.02;86.65
63447;BME280;49577;49.872;6.190;2023-05-11T05:53:57;99370.29;;;10.09;86.37
63447;BME280;49577;49.872;6.190;2023-05-11T05:56:22;99371.01;;;10.14;85.97
63447;BME280;49577;49.872;6.190;2023-05-11T05:58:48;99371.45;;;10.20;85.87
63447;BME280;49577;49.872;6.190;2023-05-11T06:01:13;99372.13;;;10.29;85.66
63447;BME280;49577;49.872;6.190;2023-05-11T06:03:38;99373.49;;;10.40;85.46
63447;BME280;49577;49.872;6.190;2023-05-11T06:06:04;99373.06;;;10.50;85.05
63447;BME280;49577;49.872;6.190;2023-05-11T06:08:31;99372.48;;;10.58;84.81
63447;BME280;49577;49.872;6.190;2023-05-11T06:10:56;99370.75;;;10.66;84.38
63447;BME280;49577;49.872;6.190;2023-05-11T06:13:21;99372.48;;;10.76;84.16
63447;BME280;49577;49.872;6.190;2023-05-11T06:15:47;99371.62;;;10.92;84.15
63447;BME280;49577;49.872;6.190;2023-05-11T06:18:12;99374.99;;;11.09;83.44
63447;BME280;49577;49.872;6.190;2023-05-11T06:20:37;99377.17;;;11.25;82.89
63447;BME280;49577;49.872;6.190;2023-05-11T06:23:02;99375.77;;;11.45;82.74
63447;BME280;49577;49.872;6.190;2023-05-11T06:25:28;99375.48;;;11.72;82.02
63447;BME280;49577;49.872;6.190;2023-05-11T06:27:53;99369.85;;;11.97;81.18
63447;BME280;49577;49.872;6.190;2023-05-11T06:30:18;99369.02;;;12.23;80.39
63447;BME280;49577;49.872;6.190;2023-05-11T06:32:44;99371.52;;;12.51;79.68
63447;BME280;49577;49.872;6.190;2023-05-11T06:35:09;99373.40;;;12.84;78.87
63447;BME280;49577;49.872;6.190;2023-05-11T06:37:34;99372.03;;;13.35;78.09
63447;BME280;49577;49.872;6.190;2023-05-11T06:40:00;99368.70;;;13.90;76.51
63447;BME280;49577;49.872;6.190;2023-05-11T06:42:26;99363.02;;;14.27;74.95
63447;BME280;49577;49.872;6.190;2023-05-11T06:44:51;99362.34;;;14.85;73.92
63447;BME280;49577;49.872;6.190;2023-05-11T06:47:16;99356.80;;;15.47;72.12
63447;BME280;49577;49.872;6.190;2023-05-11T06:49:42;99362.23;;;15.94;70.00
63447;BME280;49577;49.872;6.190;2023-05-11T06:52:07;99364.20;;;15.98;69.12
63447;BME280;49577;49.872;6.190;2023-05-11T06:54:33;99364.13;;;16.00;68.36
63447;BME280;49577;49.872;6.190;2023-05-11T06:56:59;99362.09;;;16.02;67.60
63447;BME280;49577;49.872;6.190;2023-05-11T06:59:24;99358.95;;;16.38;67.11
63447;BME280;49577;49.872;6.190;2023-05-11T07:01:50;99356.95;;;16.60;66.66
63447;BME280;49577;49.872;6.190;2023-05-11T07:04:15;99355.42;;;16.77;66.45
63447;BME280;49577;49.872;6.190;2023-05-11T07:06:40;99358.41;;;16.71;65.85
63447;BME280;49577;49.872;6.190;2023-05-11T07:09:06;99358.05;;;16.63;65.62
63447;BME280;49577;49.872;6.190;2023-05-11T07:11:32;99357.08;;;16.53;64.99
63447;BME280;49577;49.872;6.190;2023-05-11T07:13:57;99358.07;;;16.36;64.82
63447;BME280;49577;49.872;6.190;2023-05-11T07:16:22;99356.16;;;16.17;64.97
63447;BME280;49577;49.872;6.190;2023-05-11T07:18:48;99356.67;;;16.07;65.02
63447;BME280;49577;49.872;6.190;2023-05-11T07:21:13;99360.63;;;16.22;64.43
63447;BME280;49577;49.872;6.190;2023-05-11T07:23:39;99361.23;;;16.66;62.99
63447;BME280;49577;49.872;6.190;2023-05-11T07:26:04;99361.99;;;17.79;61.90
63447;BME280;49577;49.872;6.190;2023-05-11T07:28:37;99358.80;;;18.94;59.49
63447;BME280;49577;49.872;6.190;2023-05-11T07:31:03;99358.20;;;19.54;57.98
63447;BME280;49577;49.872;6.190;2023-05-11T07:33:28;99358.77;;;19.69;56.69
63447;BME280;49577;49.872;6.190;2023-05-11T07:35:54;99361.86;;;19.42;56.47
63447;BME280;49577;49.872;6.190;2023-05-11T07:38:19;99364.73;;;19.00;56.40
63447;BME280;49577;49.872;6.190;2023-05-11T07:40:45;99366.45;;;18.41;56.50
63447;BME280;49577;49.872;6.190;2023-05-11T07:43:10;99371.14;;;17.96;57.42
63447;BME280;49577;49.872;6.190;2023-05-11T07:45:35;99366.31;;;17.62;57.64
63447;BME280;49577;49.872;6.190;2023-05-11T07:48:01;99366.44;;;17.38;58.79
63447;BME280;49577;49.872;6.190;2023-05-11T07:50:26;99364.63;;;17.32;59.01
63447;BME280;49577;49.872;6.190;2023-05-11T07:52:51;99362.70;;;17.31;59.19
63447;BME280;49577;49.872;6.190;2023-05-11T07:55:17;99361.34;;;17.36;59.28
63447;BME280;49577;49.872;6.190;2023-05-11T07:57:44;99364.34;;;17.40;59.14
63447;BME280;49577;49.872;6.190;2023-05-11T08:00:10;99366.23;;;17.28;59.34
63447;BME280;49577;49.872;6.190;2023-05-11T08:02:35;99369.02;;;17.17;59.40
63447;BME280;49577;49.872;6.190;2023-05-11T08:05:01;99370.70;;;17.01;59.29
63447;BME280;49577;49.872;6.190;2023-05-11T08:07:26;99370.23;;;16.87;59.89
63447;BME280;49577;49.872;6.190;2023-05-11T08:09:52;99366.56;;;16.71;60.00
63447;BME280;49577;49.872;6.190;2023-05-11T08:12:17;99366.77;;;16.55;60.34
63447;BME280;49577;49.872;6.190;2023-05-11T08:14:42;99368.83;;;16.40;60.60
63447;BME280;49577;49.872;6.190;2023-05-11T08:17:07;99368.16;;;16.39;60.80
63447;BME280;49577;49.872;6.190;2023-05-11T08:19:33;99367.46;;;16.39;60.92
63447;BME280;49577;49.872;6.190;2023-05-11T08:21:59;99368.79;;;16.45;60.97
63447;BME280;49577;49.872;6.190;2023-05-11T08:24:25;99365.98;;;16.45;60.69
63447;BME280;49577;49.872;6.190;2023-05-11T08:26:50;99365.31;;;16.42;60.68
63447;BME280;49577;49.872;6.190;2023-05-11T08:29:15;99363.17;;;16.34;60.82
63447;BME280;49577;49.872;6.190;2023-05-11T08:31:40;99362.57;;;16.24;61.03
63447;BME280;49577;49.872;6.190;2023-05-11T08:34:06;99360.56;;;16.13;61.28
63447;BME280;49577;49.872;6.190;2023-05-11T08:36:34;99365.59;;;16.00;61.71
63447;BME280;49577;49.872;6.190;2023-05-11T08:38:59;99358.48;;;15.88;62.08
63447;BME280;49577;49.872;6.190;2023-05-11T08:41:24;99362.65;;;15.79;62.49
63447;BME280;49577;49.872;6.190;2023-05-11T08:43:51;99363.23;;;15.75;62.76
63447;BME280;49577;49.872;6.190;2023-05-11T08:46:20;99359.20;;;15.72;62.75
63447;BME280;49577;49.872;6.190;2023-05-11T08:48:47;99354.77;;;15.66;62.63
63447;BME280;49577;49.872;6.190;2023-05-11T08:51:13;99357.66;;;15.60;62.83
63447;BME280;49577;49.872;6.190;2023-05-11T08:53:38;99356.85;;;15.59;63.41
63447;BME280;49577;49.872;6.190;2023-05-11T08:56:06;99356.49;;;15.61;63.56
63447;BME280;49577;49.872;6.190;2023-05-11T08:58:34;99359.13;;;15.61;63.44
63447;BME280;49577;49.872;6.190;2023-05-11T09:01:02;99355.55;;;15.60;63.48
63447;BME280;49577;49.872;6.190;2023-05-11T09:03:29;99354.50;;;15.54;63.41
63447;BME280;49577;49.872;6.190;2023-05-11T09:05:56;99357.45;;;15.54;63.84
63447;BME280;49577;49.872;6.190;2023-05-11T09:08:22;99356.83;;;15.59;63.84
63447;BME280;49577;49.872;6.190;2023-05-11T09:10:48;99356.55;;;15.62;63.54
63447;BME280;49577;49.872;6.190;2023-05-11T09:13:14;99355.23;;;15.70;63.46
63447;BME280;49577;49.872;6.190;2023-05-11T09:15:40;99355.58;;;15.76;63.25
63447;BME280;49577;49.872;6.190;2023-05-11T09:18:05;99357.08;;;15.79;63.06
63447;BME280;49577;49.872;6.190;2023-05-11T09:20:32;99358.82;;;15.87;62.81
63447;BME280;49577;49.872;6.190;2023-05-11T09:22:58;99358.70;;;15.98;62.41
63447;BME280;49577;49.872;6.190;2023-05-11T09:25:26;99359.29;;;16.05;61.97
63447;BME280;49577;49.872;6.190;2023-05-11T09:27:52;99358.64;;;16.11;61.71
63447;BME280;49577;49.872;6.190;2023-05-11T09:30:22;99360.20;;;16.17;61.01
63447;BME280;49577;49.872;6.190;2023-05-11T09:32:57;99355.59;;;16.27;60.66
63447;BME280;49577;49.872;6.190;2023-05-11T09:35:25;99357.09;;;16.45;60.62
63447;BME280;49577;49.872;6.190;2023-05-11T09:40:23;99355.70;;;16.82;59.85
63447;BME280;49577;49.872;6.190;2023-05-11T09:42:48;99355.94;;;16.92;59.55
63447;BME280;49577;49.872;6.190;2023-05-11T09:45:33;99355.45;;;16.94;59.30
63447;BME280;49577;49.872;6.190;2023-05-11T09:47:59;99352.66;;;16.93;59.38
63447;BME280;49577;49.872;6.190;2023-05-11T09:50:30;99352.33;;;16.99;59.08
63447;BME280;49577;49.872;6.190;2023-05-11T09:52:56;99350.13;;;17.09;58.98
63447;BME280;49577;49.872;6.190;2023-05-11T09:55:22;99348.63;;;17.10;59.07
63447;BME280;49577;49.872;6.190;2023-05-11T09:57:55;99344.88;;;17.11;59.23
63447;BME280;49577;49.872;6.190;2023-05-11T10:00:21;99343.65;;;17.13;59.51
63447;BME280;49577;49.872;6.190;2023-05-11T10:03:03;99343.73;;;17.16;59.61
63447;BME280;49577;49.872;6.190;2023-05-11T10:05:35;99340.11;;;17.14;59.66
63447;BME280;49577;49.872;6.190;2023-05-11T10:08:02;99342.15;;;17.02;59.36
63447;BME280;49577;49.872;6.190;2023-05-11T10:10:30;99343.46;;;16.88;59.82
63447;BME280;49577;49.872;6.190;2023-05-11T10:13:00;99343.90;;;16.76;60.37
63447;BME280;49577;49.872;6.190;2023-05-11T10:15:27;99347.26;;;16.64;60.67
63447;BME280;49577;49.872;6.190;2023-05-11T10:17:54;99350.89;;;16.46;60.68
63447;BME280;49577;49.872;6.190;2023-05-11T10:20:20;99350.30;;;16.29;60.59
63447;BME280;49577;49.872;6.190;2023-05-11T10:22:45;99347.34;;;16.11;60.77
63447;BME280;49577;49.872;6.190;2023-05-11T10:25:12;99343.00;;;16.02;61.35
63447;BME280;49577;49.872;6.190;2023-05-11T10:27:38;99343.20;;;15.96;61.26
63447;BME280;49577;49.872;6.190;2023-05-11T10:30:04;99339.38;;;15.87;61.18
63447;BME280;49577;49.872;6.190;2023-05-11T10:32:35;99343.09;;;15.75;61.64
63447;BME280;49577;49.872;6.190;2023-05-11T10:35:02;99340.64;;;15.75;62.45
63447;BME280;49577;49.872;6.190;2023-05-11T10:37:27;99339.61;;;15.79;62.39
63447;BME280;49577;49.872;6.190;2023-05-11T10:39:53;99339.93;;;15.81;62.17
63447;BME280;49577;49.872;6.190;2023-05-11T11:01:41;99320.74;;;17.14;59.41
63447;BME280;49577;49.872;6.190;2023-05-11T11:04:08;99317.92;;;17.42;58.36
63447;BME280;49577;49.872;6.190;2023-05-11T11:06:36;99322.28;;;17.55;58.15
63447;BME280;49577;49.872;6.190;2023-05-11T11:09:03;99320.96;;;17.73;57.48
63447;BME280;49577;49.872;6.190;2023-05-11T11:11:45;99321.42;;;17.74;56.78
63447;BME280;49577;49.872;6.190;2023-05-11T11:14:10;99317.94;;;17.73;56.11
63447;BME280;49577;49.872;6.190;2023-05-11T11:16:37;99321.83;;;17.89;56.51
63447;BME280;49577;49.872;6.190;2023-05-11T11:21:57;99312.20;;;18.07;55.71
63447;BME280;49577;49.872;6.190;2023-05-11T11:27:04;99305.56;;;18.16;55.42
63447;BME280;49577;49.872;6.190;2023-05-11T11:29:30;99304.94;;;18.19;55.26
63447;BME280;49577;49.872;6.190;2023-05-11T11:34:46;99300.66;;;18.35;55.21
63447;BME280;49577;49.872;6.190;2023-05-11T11:37:13;99297.64;;;18.52;54.73
63447;BME280;49577;49.872;6.190;2023-05-11T11:42:10;99295.67;;;18.78;53.15
63447;BME280;49577;49.872;6.190;2023-05-11T11:44:37;99300.04;;;18.86;52.61
63447;BME280;49577;49.872;6.190;2023-05-11T11:49:36;99292.94;;;18.98;52.73
63447;BME280;49577;49.872;6.190;2023-05-11T11:52:01;99292.10;;;19.03;52.98
63447;BME280;49577;49.872;6.190;2023-05-11T11:54:43;99282.52;;;19.17;52.84
63447;BME280;49577;49.872;6.190;2023-05-11T12:00:06;99283.14;;;19.39;52.07
63447;BME280;49577;49.872;6.190;2023-05-11T12:02:39;99279.80;;;19.48;51.75
63447;BME280;49577;49.872;6.190;2023-05-11T12:05:11;99280.27;;;19.60;51.19
63447;BME280;49577;49.872;6.190;2023-05-11T12:07:42;99278.31;;;19.69;50.95
63447;BME280;49577;49.872;6.190;2023-05-11T12:10:08;99279.36;;;19.77;50.42
63447;BME280;49577;49.872;6.190;2023-05-11T12:12:37;99277.46;;;19.82;50.48
63447;BME280;49577;49.872;6.190;2023-05-11T12:15:04;99278.41;;;19.86;50.16
63447;BME280;49577;49.872;6.190;2023-05-11T12:17:31;99277.58;;;19.82;49.81
63447;BME280;49577;49.872;6.190;2023-05-11T12:20:12;99276.86;;;19.69;49.36
63447;BME280;49577;49.872;6.190;2023-05-11T12:22:38;99275.02;;;19.60;49.73
63447;BME280;49577;49.872;6.190;2023-05-11T12:25:06;99280.11;;;19.47;49.35
63447;BME280;49577;49.872;6.190;2023-05-11T12:27:32;99276.27;;;19.24;50.07
63447;BME280;49577;49.872;6.190;2023-05-11T12:29:57;99282.45;;;18.97;51.74
63447;BME280;49577;49.872;6.190;2023-05-11T12:32:28;99289.95;;;18.68;52.98
63447;BME280;49577;49.872;6.190;2023-05-11T12:35:01;99302.09;;;18.32;54.17
63447;BME280;49577;49.872;6.190;2023-05-11T12:37:28;99303.92;;;17.42;54.00
63447;BME280;49577;49.872;6.190;2023-05-11T12:39:54;99311.45;;;16.45;55.54
63447;BME280;49577;49.872;6.190;2023-05-11T12:42:20;99316.17;;;15.81;57.61
63447;BME280;49577;49.872;6.190;2023-05-11T12:44:45;99323.44;;;15.34;59.42
63447;BME280;49577;49.872;6.190;2023-05-11T12:47:10;99323.45;;;14.93;60.25
63447;BME280;49577;49.872;6.190;2023-05-11T12:49:36;99323.58;;;14.67;61.73
63447;BME280;49577;49.872;6.190;2023-05-11T12:52:05;99323.63;;;14.41;62.07
63447;BME280;49577;49.872;6.190;2023-05-11T12:54:37;99321.97;;;14.18;62.59
63447;BME280;49577;49.872;6.190;2023-05-11T12:57:04;99323.16;;;14.08;63.27
63447;BME280;49577;49.872;6.190;2023-05-11T12:59:37;99319.85;;;14.06;64.51
63447;BME280;49577;49.872;6.190;2023-05-11T13:02:11;99323.48;;;14.17;65.12
63447;BME280;49577;49.872;6.190;2023-05-11T13:04:39;99322.15;;;14.27;65.86
63447;BME280;49577;49.872;6.190;2023-05-11T13:07:05;99318.20;;;14.34;65.41
63447;BME280;49577;49.872;6.190;2023-05-11T13:09:31;99313.75;;;14.35;65.09
63447;BME280;49577;49.872;6.190;2023-05-11T13:12:15;99314.41;;;14.39;65.91
63447;BME280;49577;49.872;6.190;2023-05-11T13:14:43;99312.48;;;14.55;66.63
63447;BME280;49577;49.872;6.190;2023-05-11T13:17:09;99310.23;;;14.71;66.48
63447;BME280;49577;49.872;6.190;2023-05-11T13:19:34;99311.55;;;14.86;66.03
63447;BME280;49577;49.872;6.190;2023-05-11T13:22:01;99307.73;;;14.94;65.50
63447;BME280;49577;49.872;6.190;2023-05-11T13:24:27;99308.45;;;14.94;65.20
63447;BME280;49577;49.872;6.190;2023-05-11T13:26:53;99304.09;;;14.98;64.62
63447;BME280;49577;49.872;6.190;2023-05-11T13:29:20;99303.28;;;15.03;64.85
63447;BME280;49577;49.872;6.190;2023-05-11T13:31:49;99298.09;;;15.10;64.21
63447;BME280;49577;49.872;6.190;2023-05-11T13:34:15;99291.59;;;15.16;63.78
63447;BME280;49577;49.872;6.190;2023-05-11T13:36:41;99289.09;;;15.21;63.83
63447;BME280;49577;49.872;6.190;2023-05-11T13:39:07;99291.72;;;15.29;63.81
63447;BME280;49577;49.872;6.190;2023-05-11T13:41:32;99286.43;;;15.35;63.28
63447;BME280;49577;49.872;6.190;2023-05-11T13:43:58;99282.84;;;15.44;63.51
63447;BME280;49577;49.872;6.190;2023-05-11T13:46:23;99275.66;;;15.55;63.80
63447;BME280;49577;49.872;6.190;2023-05-11T13:48:49;99272.50;;;15.68;64.18
63447;BME280;49577;49.872;6.190;2023-05-11T13:51:14;99268.13;;;15.79;64.08